Time;durP1;ratioP1;P1;durP2;ratioP2;P2;SDS_P1;SDS_P2;PMS_P1;PMS_P2;Temp;Humidity;BMP_temperature;BMP_pressure;BME280_temperature;BME280_humidity;BME280_pressure;Samples;Min_cycle;Max_cycle;Signal;HPM_P1;HPM_P2
2021/12/24 00:00:43;;;;;;;26.87;8.83;;;6.40;99.90;;;;;;5046941;28;20040;-66
2021/12/24 00:03:11;;;;;;;25.00;8.90;;;6.30;99.90;;;;;;5046710;28;20300;-66
2021/12/24 00:05:37;;;;;;;23.75;9.70;;;6.40;99.90;;;;;;5028190;28;20037;-66
2021/12/24 00:08:04;;;;;;;23.60;9.02;;;6.40;99.90;;;;;;5037875;28;20158;-66
2021/12/24 00:10:31;;;;;;;22.55;8.85;;;6.40;99.90;;;;;;5043279;28;20425;-67
2021/12/24 00:13:02;;;;;;;23.98;9.40;;;6.40;99.90;;;;;;5044620;28;20094;-65
2021/12/24 00:18:12;;;;;;;25.98;9.70;;;6.50;99.90;;;;;;5040741;28;20334;-66
2021/12/24 00:37:08;;;;;;;18.10;7.65;;;6.80;99.90;;;;;;5043875;28;20041;-67
2021/12/24 00:39:39;;;;;;;16.67;6.20;;;6.80;99.90;;;;;;5010941;28;20034;-67
2021/12/24 00:42:05;;;;;;;15.50;6.22;;;6.80;99.90;;;;;;5045206;28;20436;-68
2021/12/24 00:44:31;;;;;;;17.87;6.83;;;6.80;99.90;;;;;;5028594;28;20108;-67
2021/12/24 00:46:56;;;;;;;13.93;6.27;;;6.80;99.90;;;;;;5030358;28;20037;-65
2021/12/24 00:49:22;;;;;;;17.93;5.90;;;6.80;99.90;;;;;;5042340;28;20048;-69
2021/12/24 00:57:14;;;;;;;16.05;5.78;;;6.90;99.90;;;;;;4981179;28;20046;-68
2021/12/24 00:59:39;;;;;;;12.07;5.40;;;6.90;99.90;;;;;;5030834;28;21193;-67
2021/12/24 01:02:05;;;;;;;15.40;5.70;;;6.90;99.90;;;;;;5049990;28;20037;-65
2021/12/24 01:04:34;;;;;;;13.17;5.40;;;7.00;99.90;;;;;;5031174;28;20428;-66
2021/12/24 01:06:59;;;;;;;14.88;5.38;;;7.00;99.90;;;;;;5046969;28;20033;-66
2021/12/24 01:09:25;;;;;;;16.37;5.80;;;7.00;99.90;;;;;;5040742;28;20048;-67
2021/12/24 01:11:51;;;;;;;14.40;5.30;;;7.00;99.90;;;;;;5043764;28;20154;-66
2021/12/24 01:14:18;;;;;;;17.83;6.07;;;7.00;99.90;;;;;;5028853;28;20090;-67
2021/12/24 01:16:52;;;;;;;25.85;5.93;;;7.00;99.90;;;;;;5043578;28;20041;-67
2021/12/24 01:19:22;;;;;;;16.50;6.78;;;7.10;99.90;;;;;;5025991;28;20484;-67
2021/12/24 01:22:19;;;;;;;18.50;6.38;;;7.10;99.90;;;;;;5028496;28;20049;-68
2021/12/24 01:24:50;;;;;;;17.85;6.32;;;7.10;99.90;;;;;;5042216;28;20041;-65
2021/12/24 01:27:37;;;;;;;22.08;6.65;;;7.10;99.90;;;;;;5044116;28;20041;-69
2021/12/24 01:37:48;;;;;;;18.58;6.65;;;7.20;99.90;;;;;;5047711;28;20048;-69
2021/12/24 01:38:25;;;;;;;23.35;7.75;;;7.20;99.90;;;;;;5037483;28;20143;-67
2021/12/24 01:41:04;;;;;;;22.98;7.82;;;7.30;99.90;;;;;;5044989;28;20053;-67
2021/12/24 01:43:29;;;;;;;25.77;7.70;;;7.30;99.90;;;;;;5046829;28;20099;-68
2021/12/24 01:45:57;;;;;;;23.87;8.67;;;7.30;99.90;;;;;;5048676;28;20037;-69
2021/12/24 01:48:23;;;;;;;25.70;8.23;;;7.30;99.90;;;;;;5044769;28;20057;-67
2021/12/24 01:50:50;;;;;;;17.63;7.67;;;7.30;99.90;;;;;;5028915;28;20087;-66
2021/12/24 01:53:19;;;;;;;31.33;9.88;;;7.40;99.90;;;;;;5037471;28;20511;-66
2021/12/24 01:55:47;;;;;;;37.40;9.85;;;7.30;99.90;;;;;;5047749;28;20063;-67
2021/12/24 01:58:17;;;;;;;26.20;8.82;;;7.30;99.90;;;;;;5043675;28;20041;-66
2021/12/24 02:00:45;;;;;;;26.45;8.82;;;7.30;99.90;;;;;;5046742;28;20509;-66
2021/12/24 02:03:12;;;;;;;28.92;9.10;;;7.40;99.90;;;;;;5045028;28;20493;-66
2021/12/24 02:05:38;;;;;;;;;;;7.40;99.90;;;;;;5025303;28;20071;-68
2021/12/24 02:08:04;;;;;;;26.85;8.73;;;7.30;99.90;;;;;;5021844;28;19974;-68
2021/12/24 02:10:30;;;;;;;29.00;9.38;;;7.40;99.90;;;;;;5041616;28;20076;-68
2021/12/24 02:12:56;;;;;;;36.97;10.03;;;7.40;99.90;;;;;;5047510;28;20148;-67
2021/12/24 02:28:51;;;;;;;29.00;9.55;;;7.50;99.90;;;;;;5045242;28;20076;-68
2021/12/24 02:31:21;;;;;;;33.65;9.70;;;7.50;99.90;;;;;;5048847;28;20056;-68
2021/12/24 02:33:46;;;;;;;31.35;10.57;;;7.60;99.90;;;;;;5048171;28;20045;-68
2021/12/24 02:36:12;;;;;;;33.57;10.33;;;7.70;99.90;;;;;;5046812;28;20508;-68
2021/12/24 02:38:39;;;;;;;45.30;12.07;;;7.60;99.90;;;;;;5030982;28;20284;-66
2021/12/24 02:41:07;;;;;;;37.78;10.88;;;7.70;99.90;;;;;;5048590;28;20037;-65
2021/12/24 02:43:34;;;;;;;41.03;11.25;;;7.70;99.90;;;;;;5031450;28;20044;-66
2021/12/24 02:46:08;;;;;;;39.15;9.48;;;7.80;99.90;;;;;;5042116;28;20405;-67
2021/12/24 02:54:01;;;;;;;33.90;8.43;;;7.90;99.90;;;;;;5046895;28;20512;-66
2021/12/24 02:56:33;;;;;;;41.17;10.18;;;8.00;99.90;;;;;;5048405;28;20124;-66
2021/12/24 02:59:00;;;;;;;49.58;10.30;;;8.00;99.90;;;;;;5048530;28;20404;-67
2021/12/24 03:01:35;;;;;;;38.70;9.70;;;8.00;99.90;;;;;;5030697;28;20153;-67
2021/12/24 03:04:01;;;;;;;44.35;10.93;;;8.10;99.90;;;;;;5048760;28;20422;-66
2021/12/24 03:06:28;;;;;;;;;;;8.10;99.90;;;;;;5042374;28;20166;-65
2021/12/24 03:08:57;;;;;;;36.72;10.05;;;8.10;99.90;;;;;;5045123;28;19916;-67
2021/12/24 03:11:24;;;;;;;43.00;9.73;;;8.20;99.90;;;;;;5045826;28;20045;-67
2021/12/24 03:13:51;;;;;;;45.85;10.40;;;8.10;99.90;;;;;;5048482;28;20413;-66
2021/12/24 03:16:21;;;;;;;43.63;9.75;;;8.20;99.90;;;;;;5048540;28;20037;-67
2021/12/24 03:18:48;;;;;;;30.55;8.85;;;8.20;99.90;;;;;;5060926;23;20219;-66
2021/12/24 03:21:26;;;;;;;35.72;8.32;;;8.20;99.90;;;;;;5032630;28;20052;-66
2021/12/24 03:26:35;;;;;;;37.05;8.43;;;8.30;99.90;;;;;;5032471;28;20058;-66
2021/12/24 03:29:03;;;;;;;29.77;9.07;;;8.30;99.90;;;;;;5050340;28;20047;-66
2021/12/24 03:31:29;;;;;;;32.58;9.48;;;8.30;99.90;;;;;;5032355;28;20052;-66
2021/12/24 03:33:54;;;;;;;35.23;9.90;;;8.30;99.90;;;;;;5050760;28;20397;-66
2021/12/24 03:36:24;;;;;;;35.93;9.60;;;8.30;99.90;;;;;;5031625;28;20040;-66
2021/12/24 03:38:51;;;;;;;38.85;11.02;;;8.30;99.90;;;;;;5032685;28;20056;-66
2021/12/24 03:41:16;;;;;;;40.88;11.02;;;8.30;99.90;;;;;;5049849;28;20045;-66
2021/12/24 03:43:42;;;;;;;40.63;10.43;;;8.30;99.90;;;;;;5050567;28;20470;-66
2021/12/24 03:46:13;;;;;;;44.30;11.10;;;8.30;99.90;;;;;;5050405;28;20029;-66
2021/12/24 03:48:47;;;;;;;43.67;10.05;;;8.40;99.90;;;;;;5049987;28;20040;-66
2021/12/24 03:51:32;;;;;;;36.42;11.80;;;8.40;99.90;;;;;;5032228;28;20106;-66
2021/12/24 03:56:46;;;;;;;46.35;13.40;;;8.40;99.90;;;;;;5049953;28;20052;-66
2021/12/24 03:59:13;;;;;;;47.42;13.73;;;8.40;99.90;;;;;;5032101;28;20440;-67
2021/12/24 04:01:39;;;;;;;41.40;13.93;;;8.50;99.90;;;;;;5050000;28;20091;-66
2021/12/24 04:04:05;;;;;;;44.35;14.38;;;8.50;99.90;;;;;;5050125;28;20043;-66
2021/12/24 04:06:32;;;;;;;44.28;13.85;;;8.50;99.90;;;;;;5031429;28;20033;-66
2021/12/24 04:08:58;;;;;;;47.97;14.63;;;8.50;99.90;;;;;;5032342;28;20378;-66
2021/12/24 04:11:24;;;;;;;43.77;14.20;;;8.60;99.90;;;;;;5049203;28;20063;-66
2021/12/24 04:13:50;;;;;;;40.70;13.75;;;8.50;99.90;;;;;;5031728;28;20049;-66
2021/12/24 04:16:16;;;;;;;40.13;13.25;;;8.60;99.90;;;;;;5031843;28;20036;-66
2021/12/24 04:19:04;;;;;;;35.87;11.70;;;8.60;99.90;;;;;;5049214;28;20109;-66
2021/12/24 04:27:01;;;;;;;41.78;13.05;;;8.60;99.90;;;;;;5023451;28;20044;-68
2021/12/24 04:29:27;;;;;;;41.88;11.75;;;8.60;99.90;;;;;;5037391;28;20120;-66
2021/12/24 04:32:06;;;;;;;;;;;8.60;99.90;;;;;;5031675;28;20049;-66
2021/12/24 04:34:34;;;;;;;38.38;12.07;;;8.60;99.90;;;;;;5031197;28;19917;-66
2021/12/24 04:37:49;;;;;;;38.05;11.63;;;8.60;99.90;;;;;;5030897;28;20045;-66
2021/12/24 05:01:42;;;;;;;35.00;14.07;;;8.60;99.90;;;;;;5048597;28;20045;-66
2021/12/24 05:04:10;;;;;;;37.22;13.25;;;8.60;99.90;;;;;;5023869;28;20049;-66
2021/12/24 05:06:41;;;;;;;47.38;13.13;;;8.60;99.90;;;;;;5048738;28;20056;-66
2021/12/24 05:09:12;;;;;;;38.97;12.60;;;8.60;99.90;;;;;;5044597;28;20032;-71
2021/12/24 05:11:38;;;;;;;40.42;12.73;;;8.60;99.90;;;;;;5027967;28;20120;-66
2021/12/24 05:14:04;;;;;;;41.15;12.27;;;8.60;99.90;;;;;;5048995;28;20063;-66
2021/12/24 05:16:47;;;;;;;37.22;11.35;;;8.60;99.90;;;;;;5049292;28;20037;-66
2021/12/24 05:21:49;;;;;;;35.53;10.43;;;8.60;99.90;;;;;;5067344;28;20055;-66
2021/12/24 05:24:18;;;;;;;36.35;9.48;;;8.60;99.90;;;;;;5048701;28;20091;-66
2021/12/24 05:26:46;;;;;;;33.47;9.95;;;8.60;99.90;;;;;;5052507;28;20386;-66
2021/12/24 05:29:14;;;;;;;26.92;10.05;;;8.60;99.90;;;;;;5030886;28;20616;-66
2021/12/24 05:31:40;;;;;;;30.60;10.85;;;8.60;99.90;;;;;;5031486;28;20052;-66
2021/12/24 05:34:06;;;;;;;32.23;9.53;;;8.60;99.90;;;;;;5032133;28;20049;-65
2021/12/24 05:36:31;;;;;;;33.30;8.93;;;8.60;99.90;;;;;;5049067;28;20352;-66
2021/12/24 05:38:57;;;;;;;26.63;9.30;;;8.60;99.90;;;;;;5052067;28;20107;-66
2021/12/24 05:41:23;;;;;;;38.75;8.40;;;8.60;99.90;;;;;;5052497;28;20120;-67
2021/12/24 05:43:50;;;;;;;26.75;7.85;;;8.60;99.90;;;;;;5034683;28;20044;-66
2021/12/24 05:46:16;;;;;;;;;;;8.60;99.90;;;;;;5053388;28;20051;-66
2021/12/24 05:48:42;;;;;;;27.48;7.93;;;8.60;99.90;;;;;;5051882;28;19971;-66
2021/12/24 05:51:09;;;;;;;28.90;7.87;;;8.60;99.90;;;;;;5034193;28;20083;-66
2021/12/24 05:53:36;;;;;;;37.17;7.47;;;8.60;99.90;;;;;;5051598;28;20029;-66
2021/12/24 05:56:01;;;;;;;26.67;7.28;;;8.60;99.90;;;;;;5052532;28;20413;-66
2021/12/24 05:58:27;;;;;;;29.60;6.93;;;8.60;99.90;;;;;;5052206;28;20037;-66
2021/12/24 06:00:53;;;;;;;25.73;7.13;;;8.60;99.90;;;;;;5052123;28;20037;-66
2021/12/24 06:03:18;;;;;;;21.30;6.77;;;8.60;99.90;;;;;;5033863;28;20060;-66
2021/12/24 06:05:44;;;;;;;33.63;7.80;;;8.60;99.90;;;;;;5033772;28;20049;-66
2021/12/24 06:08:10;;;;;;;21.30;7.50;;;8.60;99.90;;;;;;5026100;28;20041;-66
2021/12/24 06:10:36;;;;;;;21.33;7.00;;;8.60;99.90;;;;;;5048704;28;20037;-66
2021/12/24 06:13:04;;;;;;;32.13;8.30;;;8.60;99.90;;;;;;5051187;28;20436;-66
2021/12/24 06:15:30;;;;;;;29.40;7.90;;;8.50;99.90;;;;;;5034374;28;20040;-66
2021/12/24 06:17:58;;;;;;;14.98;6.28;;;8.50;99.90;;;;;;5033397;28;20065;-67
2021/12/24 06:20:26;;;;;;;20.40;6.57;;;8.60;99.90;;;;;;5052021;28;20123;-66
2021/12/24 06:22:52;;;;;;;22.60;5.78;;;8.50;99.90;;;;;;5051027;28;20624;-66
2021/12/24 06:25:19;;;;;;;24.05;6.70;;;8.50;99.90;;;;;;5051886;28;20073;-67
2021/12/24 06:27:46;;;;;;;27.13;6.85;;;8.50;99.90;;;;;;5051319;28;20037;-66
2021/12/24 06:30:13;;;;;;;25.95;6.60;;;8.50;99.90;;;;;;5033145;28;20033;-66
2021/12/24 06:32:39;;;;;;;;;;;8.50;99.90;;;;;;5034586;28;20385;-66
2021/12/24 06:35:06;;;;;;;22.50;5.20;;;8.50;99.90;;;;;;5050426;28;20004;-67
2021/12/24 06:37:32;;;;;;;24.27;5.53;;;8.50;99.90;;;;;;5032961;28;20123;-66
2021/12/24 06:39:57;;;;;;;17.45;5.70;;;8.50;99.90;;;;;;5033526;28;20468;-66
2021/12/24 06:42:23;;;;;;;24.10;6.53;;;8.40;99.90;;;;;;5032986;28;20072;-66
2021/12/24 06:44:49;;;;;;;17.10;5.17;;;8.40;99.90;;;;;;5033189;28;20380;-66
2021/12/24 06:47:15;;;;;;;24.08;5.38;;;8.40;99.90;;;;;;5051117;28;20621;-66
2021/12/24 06:49:40;;;;;;;33.67;5.47;;;8.40;99.90;;;;;;5033499;28;20094;-66
2021/12/24 06:52:06;;;;;;;24.00;5.13;;;8.40;99.90;;;;;;5051080;28;20033;-66
2021/12/24 06:54:33;;;;;;;19.77;4.88;;;8.40;99.90;;;;;;5051070;28;20119;-66
2021/12/24 06:57:01;;;;;;;25.65;5.35;;;8.40;99.90;;;;;;5033228;28;20040;-66
2021/12/24 06:59:27;;;;;;;21.70;5.07;;;8.40;99.90;;;;;;5033277;28;20049;-66
2021/12/24 07:01:53;;;;;;;21.55;6.47;;;8.40;99.90;;;;;;5031646;28;20049;-66
2021/12/24 07:04:18;;;;;;;21.60;6.73;;;8.40;99.90;;;;;;5032264;28;20045;-66
2021/12/24 07:06:45;;;;;;;;;;;8.40;99.90;;;;;;5051120;28;20618;-66
2021/12/24 07:09:15;;;;;;;26.60;4.82;;;8.40;99.90;;;;;;5050760;28;19927;-66
2021/12/24 07:11:42;;;;;;;19.90;5.97;;;8.30;99.90;;;;;;5050160;28;20447;-66
2021/12/24 07:14:08;;;;;;;23.38;6.75;;;8.40;99.90;;;;;;5051171;28;20037;-66
2021/12/24 07:16:34;;;;;;;20.35;5.45;;;8.30;99.90;;;;;;5050134;28;20121;-69
2021/12/24 07:18:59;;;;;;;20.02;5.13;;;8.30;99.90;;;;;;5031113;28;20047;-69
2021/12/24 07:21:25;;;;;;;28.80;5.10;;;8.40;99.90;;;;;;5031007;28;20047;-69
2021/12/24 07:23:51;;;;;;;26.97;4.50;;;8.40;99.90;;;;;;5049735;28;20048;-69
2021/12/24 07:26:16;;;;;;;19.47;3.93;;;8.40;99.90;;;;;;5033742;28;20289;-76
2021/12/24 07:28:42;;;;;;;21.63;3.97;;;8.30;99.90;;;;;;5030064;28;20111;-69
2021/12/24 07:31:07;;;;;;;19.30;4.90;;;8.40;99.90;;;;;;5050083;28;20102;-69
2021/12/24 07:33:33;;;;;;;17.60;4.27;;;8.40;99.90;;;;;;5032635;28;20564;-69
2021/12/24 07:35:58;;;;;;;21.23;4.23;;;8.30;99.90;;;;;;5049748;28;20052;-69
2021/12/24 07:38:24;;;;;;;28.27;4.80;;;8.30;99.90;;;;;;5032032;28;20041;-69
2021/12/24 07:40:50;;;;;;;21.30;5.30;;;8.30;99.90;;;;;;5030088;28;20405;-69
2021/12/24 07:43:16;;;;;;;23.30;4.60;;;8.30;99.90;;;;;;5031827;28;20587;-69
2021/12/24 07:45:44;;;;;;;18.83;3.50;;;8.40;99.90;;;;;;5049160;28;20396;-73
2021/12/24 07:48:14;;;;;;;19.65;4.22;;;8.40;99.90;;;;;;5049533;28;20531;-69
2021/12/24 07:53:11;;;;;;;15.60;4.47;;;8.30;99.90;;;;;;5042260;28;20049;-69
2021/12/24 07:55:38;;;;;;;12.70;3.88;;;8.30;99.90;;;;;;5050110;28;20132;-69
2021/12/24 07:58:05;;;;;;;15.40;4.30;;;8.30;99.90;;;;;;5049488;28;20049;-69
2021/12/24 08:00:31;;;;;;;16.25;4.32;;;8.30;99.90;;;;;;5032119;28;20036;-69
2021/12/24 08:03:01;;;;;;;17.90;3.83;;;8.30;99.90;;;;;;5018258;28;20378;-68
2021/12/24 08:05:26;;;;;;;17.77;4.05;;;8.30;99.90;;;;;;5031626;28;20307;-69
2021/12/24 08:07:54;;;;;;;19.30;4.10;;;8.30;99.90;;;;;;5049650;28;20083;-69
2021/12/24 08:10:21;;;;;;;15.02;3.65;;;8.30;99.90;;;;;;5038235;28;20389;-69
2021/12/24 08:12:48;;;;;;;25.52;5.47;;;8.30;99.90;;;;;;5049995;28;20043;-68
2021/12/24 08:15:13;;;;;;;22.45;4.47;;;8.30;99.90;;;;;;5030716;28;20059;-69
2021/12/24 08:17:39;;;;;;;16.50;3.97;;;8.30;99.90;;;;;;5031975;28;20044;-69
2021/12/24 08:20:07;;;;;;;20.60;4.57;;;8.30;99.90;;;;;;5031804;28;20041;-69
2021/12/24 08:22:34;;;;;;;18.83;4.45;;;8.30;99.90;;;;;;5031479;28;20094;-69
2021/12/24 08:25:00;;;;;;;;;;;8.20;99.90;;;;;;5050516;28;20497;-69
2021/12/24 08:27:25;;;;;;;31.40;4.18;;;8.20;99.90;;;;;;5048871;28;19916;-69
2021/12/24 08:29:52;;;;;;;12.97;3.80;;;8.30;99.90;;;;;;5031955;28;20037;-69
2021/12/24 08:32:18;;;;;;;23.10;4.00;;;8.30;99.90;;;;;;5031955;28;20043;-69
2021/12/24 08:34:44;;;;;;;17.15;4.25;;;8.30;99.90;;;;;;5048885;28;20060;-69
2021/12/24 08:37:10;;;;;;;15.32;5.00;;;8.30;99.90;;;;;;5032051;28;20413;-69
2021/12/24 08:39:36;;;;;;;21.77;5.55;;;8.30;99.90;;;;;;5049369;28;20040;-69
2021/12/24 08:42:02;;;;;;;15.20;4.43;;;8.30;99.90;;;;;;5049688;28;20048;-69
2021/12/24 08:44:33;;;;;;;18.70;3.70;;;8.30;99.90;;;;;;5031654;28;20059;-69
2021/12/24 08:47:03;;;;;;;18.30;3.53;;;8.30;99.90;;;;;;5031238;28;20044;-69
2021/12/24 08:49:30;;;;;;;15.85;3.30;;;8.40;99.90;;;;;;5031805;28;20051;-69
2021/12/24 08:51:56;;;;;;;17.92;4.80;;;8.30;99.90;;;;;;5031294;28;20072;-69
2021/12/24 08:54:24;;;;;;;19.80;4.40;;;8.30;99.90;;;;;;5049746;28;20407;-69
2021/12/24 08:56:51;;;;;;;14.88;4.20;;;8.40;99.90;;;;;;5045633;28;20041;-69
2021/12/24 08:59:17;;;;;;;16.02;3.83;;;8.40;99.90;;;;;;5027261;28;20033;-69
2021/12/24 09:01:43;;;;;;;15.43;4.10;;;8.40;99.90;;;;;;5053417;28;20037;-69
2021/12/24 09:04:10;;;;;;;20.65;4.15;;;8.40;99.90;;;;;;5052868;28;20080;-69
2021/12/24 09:06:35;;;;;;;;;;;8.40;99.90;;;;;;5035594;28;20044;-69
2021/12/24 09:09:03;;;;;;;18.42;4.07;;;8.40;99.90;;;;;;5035196;28;20284;-69
2021/12/24 09:11:29;;;;;;;20.30;4.13;;;8.30;99.90;;;;;;5035594;28;20516;-69
2021/12/24 09:13:54;;;;;;;22.13;5.10;;;8.30;99.90;;;;;;5035338;28;20044;-69
2021/12/24 09:16:20;;;;;;;9.70;3.70;;;8.30;99.90;;;;;;5052891;28;20037;-69
2021/12/24 09:19:08;;;;;;;17.47;4.30;;;8.30;99.90;;;;;;5073193;22;20033;-84
2021/12/24 09:21:37;;;;;;;14.65;3.08;;;8.30;99.90;;;;;;4980168;28;20038;-84
2021/12/24 09:24:07;;;;;;;16.05;4.00;;;8.30;99.90;;;;;;4975765;28;20034;-83
2021/12/24 09:26:33;;;;;;;12.95;3.95;;;8.30;99.90;;;;;;4994628;28;20049;-85
2021/12/24 09:29:00;;;;;;;15.98;3.40;;;8.30;99.90;;;;;;4979657;28;20037;-84
2021/12/24 09:31:26;;;;;;;13.60;4.18;;;8.30;99.90;;;;;;4978745;28;20050;-83
2021/12/24 09:33:53;;;;;;;14.40;3.92;;;8.30;99.90;;;;;;4964173;28;20413;-83
2021/12/24 09:36:24;;;;;;;12.23;3.28;;;8.40;99.90;;;;;;4988585;28;20034;-85
2021/12/24 09:38:50;;;;;;;20.05;3.35;;;8.30;99.90;;;;;;4973141;28;20034;-86
2021/12/24 09:41:15;;;;;;;14.03;3.43;;;8.30;99.90;;;;;;4976213;28;20515;-85
2021/12/24 09:43:41;;;;;;;11.13;3.90;;;8.30;99.90;;;;;;4984477;28;20284;-86
2021/12/24 09:46:06;;;;;;;9.43;2.50;;;8.30;99.90;;;;;;4985438;28;20094;-85
2021/12/24 09:48:32;;;;;;;11.13;4.07;;;8.30;99.90;;;;;;4984597;28;20179;-85
2021/12/24 09:50:58;;;;;;;9.40;3.17;;;8.30;99.90;;;;;;4983492;28;20476;-85
2021/12/24 09:53:26;;;;;;;6.57;2.50;;;8.30;99.90;;;;;;4991592;28;20030;-84
2021/12/24 09:55:52;;;;;;;10.63;2.70;;;8.20;99.90;;;;;;4963539;28;20278;-85
2021/12/24 09:58:17;;;;;;;9.23;2.53;;;8.20;99.90;;;;;;4995892;28;20041;-85
2021/12/24 10:00:43;;;;;;;7.77;2.57;;;8.20;99.90;;;;;;4988248;28;20044;-85
2021/12/24 10:03:09;;;;;;;2.53;1.13;;;8.20;99.90;;;;;;4988312;28;20038;-85
2021/12/24 10:05:38;;;;;;;4.73;1.17;;;8.20;99.90;;;;;;4986712;28;20074;-85
2021/12/24 10:08:16;;;;;;;1.63;1.02;;;8.10;99.90;;;;;;4991852;28;20065;-85
2021/12/24 10:10:44;;;;;;;2.33;1.40;;;7.90;99.90;;;;;;4995401;23;20267;-70
2021/12/24 10:13:32;;;;;;;2.20;1.15;;;7.80;99.90;;;;;;5005361;28;20057;-70
2021/12/24 10:16:04;;;;;;;2.03;0.90;;;7.70;99.90;;;;;;4989138;28;20080;-70
2021/12/24 10:18:40;;;;;;;1.58;1.10;;;7.60;99.90;;;;;;5003813;28;20189;-70
2021/12/24 10:21:19;;;;;;;1.50;0.90;;;7.50;99.90;;;;;;4991972;28;20561;-70
2021/12/24 10:23:53;;;;;;;2.95;1.50;;;7.40;99.90;;;;;;4989602;28;20045;-71
2021/12/24 10:26:33;;;;;;;3.50;1.52;;;7.30;99.90;;;;;;4986963;28;20057;-70
2021/12/24 10:29:17;;;;;;;2.60;0.90;;;7.30;99.90;;;;;;5005057;28;20041;-70
2021/12/24 10:31:44;;;;;;;1.42;0.80;;;7.20;99.90;;;;;;4987783;28;20041;-70
2021/12/24 10:34:16;;;;;;;1.48;0.85;;;7.20;99.90;;;;;;5005495;28;20062;-70
2021/12/24 10:36:54;;;;;;;1.25;0.73;;;7.10;99.90;;;;;;4990489;28;20041;-70
2021/12/24 10:39:22;;;;;;;1.25;0.77;;;7.10;99.90;;;;;;5002165;28;20090;-70
2021/12/24 10:41:49;;;;;;;1.15;0.70;;;7.10;99.90;;;;;;5002343;28;20446;-69
2021/12/24 10:44:16;;;;;;;1.98;1.00;;;7.00;99.90;;;;;;4994730;28;20104;-69
2021/12/24 10:47:13;;;;;;;1.65;0.88;;;7.00;99.90;;;;;;4989358;28;20041;-69
2021/12/24 10:50:38;;;;;;;1.80;0.95;;;7.00;99.90;;;;;;4998330;28;20065;-69
2021/12/24 10:55:23;;;;;;;3.42;1.10;;;6.90;99.90;;;;;;4988172;28;20097;-69
2021/12/24 10:57:51;;;;;;;3.35;1.30;;;6.90;99.90;;;;;;4999039;28;20066;-69
2021/12/24 11:00:25;;;;;;;0.88;0.50;;;6.90;99.90;;;;;;4991242;28;20525;-69
2021/12/24 11:03:03;;;;;;;1.95;0.85;;;6.90;99.90;;;;;;4988309;28;20045;-69
2021/12/24 11:05:35;;;;;;;1.85;1.00;;;6.80;99.90;;;;;;4984635;28;20043;-69
2021/12/24 11:08:04;;;;;;;1.15;0.80;;;6.80;99.90;;;;;;5006377;28;20054;-69
2021/12/24 11:10:33;;;;;;;1.95;1.00;;;6.80;99.90;;;;;;4977199;28;20038;-69
2021/12/24 11:13:09;;;;;;;1.85;0.98;;;6.80;99.90;;;;;;4989858;28;20501;-69
2021/12/24 11:15:49;;;;;;;4.22;1.88;;;6.80;99.90;;;;;;4980827;28;20641;-69
2021/12/24 11:18:22;;;;;;;4.07;2.15;;;6.80;99.90;;;;;;4983753;28;20398;-70
2021/12/24 11:20:54;;;;;;;2.63;1.50;;;6.80;99.90;;;;;;4990759;28;20105;-69
2021/12/24 11:23:21;;;;;;;2.40;1.50;;;6.80;99.90;;;;;;5003551;28;20505;-69
2021/12/24 11:25:53;;;;;;;5.30;2.67;;;6.80;99.90;;;;;;5004719;28;20037;-69
2021/12/24 11:28:20;;;;;;;2.42;1.63;;;6.80;99.90;;;;;;4980576;28;20052;-69
2021/12/24 11:30:50;;;;;;;3.47;1.80;;;6.80;99.90;;;;;;5002534;28;20425;-69
2021/12/24 11:33:20;;;;;;;2.58;1.60;;;6.80;99.90;;;;;;4992222;28;20077;-69
2021/12/24 11:35:47;;;;;;;3.03;1.90;;;6.90;99.90;;;;;;4971475;28;20069;-69
2021/12/24 11:38:17;;;;;;;2.80;1.60;;;6.90;99.90;;;;;;4965661;28;20215;-69
2021/12/24 11:40:45;;;;;;;3.22;1.92;;;6.90;99.90;;;;;;4988944;28;20448;-69
2021/12/24 11:43:11;;;;;;;2.90;1.60;;;6.90;99.90;;;;;;5005142;28;20073;-69
2021/12/24 11:45:37;;;;;;;3.00;1.95;;;6.90;99.90;;;;;;5005905;28;20076;-69
2021/12/24 11:48:03;;;;;;;4.23;1.83;;;7.00;99.90;;;;;;5001995;28;20037;-70
2021/12/24 11:50:30;;;;;;;3.13;1.58;;;6.90;99.90;;;;;;4973648;28;20044;-70
2021/12/24 11:52:59;;;;;;;2.47;1.70;;;6.90;99.90;;;;;;4977244;28;20038;-69
2021/12/24 11:55:31;;;;;;;4.63;1.85;;;6.90;99.90;;;;;;5002829;28;20218;-69
2021/12/24 11:58:01;;;;;;;2.30;1.38;;;6.90;99.90;;;;;;4998752;28;20046;-69
2021/12/24 12:00:36;;;;;;;3.47;1.45;;;6.90;99.90;;;;;;4986464;28;20045;-70
2021/12/24 12:03:02;;;;;;;2.55;1.55;;;6.90;99.90;;;;;;4987722;28;20045;-69
2021/12/24 12:05:34;;;;;;;2.93;1.70;;;6.90;99.90;;;;;;4984745;28;20091;-69
2021/12/24 12:08:25;;;;;;;2.75;1.80;;;6.80;99.90;;;;;;4982119;28;20049;-70
2021/12/24 12:10:53;;;;;;;3.72;2.10;;;6.80;99.90;;;;;;4984205;28;20107;-69
2021/12/24 12:14:21;;;;;;;3.70;2.17;;;6.80;99.90;;;;;;4973528;28;20078;-70
2021/12/24 12:16:56;;;;;;;3.33;1.80;;;6.80;99.90;;;;;;4906043;29;20047;-70
2021/12/24 12:19:27;;;;;;;4.15;2.70;;;6.80;99.90;;;;;;4925194;29;20505;-69
2021/12/24 12:27:37;;;;;;;3.47;2.10;;;6.80;99.90;;;;;;4978144;28;20638;-69
2021/12/24 12:30:39;;;;;;;3.90;1.88;;;6.80;99.90;;;;;;4978162;28;20298;-74
2021/12/24 12:33:18;;;;;;;3.28;2.10;;;6.80;99.90;;;;;;4991731;28;20041;-69
2021/12/24 12:35:56;;;;;;;4.80;2.85;;;6.80;99.90;;;;;;4985364;28;20120;-70
2021/12/24 12:38:22;;;;;;;6.47;2.58;;;6.80;99.90;;;;;;4987864;28;20038;-69
2021/12/24 12:40:48;;;;;;;5.83;1.90;;;6.80;99.90;;;;;;4988258;28;20052;-69
2021/12/24 12:43:14;;;;;;;4.07;2.50;;;6.90;99.90;;;;;;5005073;28;20057;-70
2021/12/24 12:45:41;;;;;;;4.80;2.53;;;6.90;99.90;;;;;;4999965;28;20037;-70
2021/12/24 12:48:12;;;;;;;3.53;2.40;;;6.90;99.90;;;;;;5003902;28;20069;-70
2021/12/24 12:50:49;;;;;;;5.68;2.53;;;6.90;99.90;;;;;;4984590;28;20088;-70
2021/12/24 12:53:30;;;;;;;4.10;2.20;;;6.90;99.90;;;;;;4998006;28;20485;-70
2021/12/24 12:56:17;;;;;;;4.25;2.10;;;7.00;99.90;;;;;;4986322;28;20308;-69
2021/12/24 12:58:48;;;;;;;5.32;2.60;;;7.10;99.90;;;;;;4985288;28;20464;-70
2021/12/24 13:01:19;;;;;;;3.40;2.10;;;7.10;99.90;;;;;;4989442;28;20049;-70
2021/12/24 13:03:57;;;;;;;4.90;2.13;;;7.10;99.90;;;;;;4982639;28;20557;-70
2021/12/24 13:06:23;;;;;;;4.88;2.30;;;7.10;99.90;;;;;;4975191;28;20048;-69
2021/12/24 13:08:49;;;;;;;5.20;2.50;;;7.20;99.90;;;;;;4988317;28;20125;-70
2021/12/24 13:11:20;;;;;;;3.85;2.10;;;7.20;99.90;;;;;;4998184;28;20093;-70
2021/12/24 13:14:01;;;;;;;5.00;2.70;;;7.20;99.90;;;;;;4987910;28;20124;-70
2021/12/24 13:16:50;;;;;;;4.57;2.35;;;7.20;99.90;;;;;;4988791;28;20525;-69
2021/12/24 13:24:46;;;;;;;3.88;2.10;;;7.20;99.90;;;;;;4995343;28;20038;-69
2021/12/24 13:27:12;;;;;;;4.38;2.10;;;7.30;99.90;;;;;;4968974;28;20081;-69
2021/12/24 13:29:38;;;;;;;3.60;2.10;;;7.30;99.90;;;;;;5003662;28;20054;-70
2021/12/24 13:32:04;;;;;;;3.13;2.00;;;7.30;99.90;;;;;;4988247;28;20038;-70
2021/12/24 13:34:30;;;;;;;4.32;1.90;;;7.30;99.90;;;;;;5001760;28;20038;-70
2021/12/24 13:37:14;;;;;;;2.38;1.70;;;7.30;99.90;;;;;;4984115;28;20041;-70
2021/12/24 13:39:52;;;;;;;3.70;2.10;;;7.30;99.90;;;;;;4984510;28;20446;-70
2021/12/24 13:42:18;;;;;;;6.15;2.05;;;7.30;99.90;;;;;;4995110;28;20398;-70
2021/12/24 13:44:45;;;;;;;3.97;1.95;;;7.30;99.90;;;;;;4986091;28;20069;-70
2021/12/24 13:48:01;;;;;;;3.00;1.80;;;7.30;99.90;;;;;;5001125;28;20077;-69
2021/12/24 13:50:13;;;;;;;3.58;2.33;;;7.30;99.90;;;;;;4988391;28;20050;-70
2021/12/24 13:55:31;;;;;;;2.10;1.20;;;7.30;99.90;;;;;;4991564;28;20438;-69
2021/12/24 13:57:59;;;;;;;1.88;1.10;;;7.30;99.90;;;;;;5000347;28;20469;-69
2021/12/24 14:00:27;;;;;;;2.80;1.50;;;7.30;99.90;;;;;;5005861;28;20177;-69
2021/12/24 14:03:03;;;;;;;3.33;2.10;;;7.30;99.90;;;;;;4992144;28;20141;-69
2021/12/24 14:05:29;;;;;;;5.55;3.55;;;7.30;99.90;;;;;;4988257;28;20042;-68
2021/12/24 14:08:16;;;;;;;2.83;1.60;;;7.30;99.90;;;;;;4986776;28;20495;-69
2021/12/24 14:10:44;;;;;;;3.45;2.42;;;7.30;99.90;;;;;;4983733;28;20034;-69
2021/12/24 14:13:23;;;;;;;2.90;1.73;;;7.20;99.90;;;;;;5005245;28;20095;-69
2021/12/24 14:16:10;;;;;;;5.00;1.67;;;7.20;99.90;;;;;;5006137;28;20570;-69
2021/12/24 14:24:14;;;;;;;3.10;1.83;;;7.10;99.90;;;;;;4988744;28;20046;-69
2021/12/24 14:26:46;;;;;;;4.10;1.90;;;7.10;99.90;;;;;;4974715;28;20491;-69
2021/12/24 14:29:22;;;;;;;2.80;1.65;;;7.10;99.90;;;;;;4995034;28;20410;-69
2021/12/24 14:31:58;;;;;;;2.92;1.63;;;7.10;99.90;;;;;;4985001;28;20132;-69
2021/12/24 14:34:43;;;;;;;3.17;1.73;;;7.10;99.90;;;;;;4998015;28;20053;-69
2021/12/24 14:37:33;;;;;;;3.25;1.80;;;7.10;99.90;;;;;;5004326;28;20049;-69
2021/12/24 14:40:06;;;;;;;5.88;2.40;;;7.10;99.90;;;;;;4988888;28;20053;-69
2021/12/24 14:42:50;;;;;;;4.32;1.88;;;7.00;99.90;;;;;;4991412;28;20049;-69
2021/12/24 14:45:34;;;;;;;3.50;2.20;;;7.00;99.90;;;;;;5006029;28;20140;-69
2021/12/24 14:48:24;;;;;;;4.85;1.70;;;7.00;99.90;;;;;;5004611;28;20160;-69
2021/12/24 14:51:03;;;;;;;2.63;1.20;;;6.90;99.90;;;;;;4989418;28;20486;-69
2021/12/24 14:53:43;;;;;;;2.15;1.30;;;6.90;99.90;;;;;;4984591;28;20037;-69